CheckWX is a tool to help pilots better visualize weather data.  It is not intended as a substitute for an official pre-flight weather briefing.

18:02:58 UTC

KEDN METAR
Enterprise Municipal Airport
Enterprise, Alabama, USA
Current

8 mins ago

KEDN 171755Z AUTO 19007KT 10SM BKN012 OVC017 22/20 A2991 RMK AO2 60014 T02190199 10219 20171
Observed
Feb-17 @ 17:55 UTC
Wind
  • 190° at 7 KTS
Visibility
10 SM
Flight Rules
MVFR
Cloud Levels
  • Broken at 1,200' AGL
  • Overcast at 1,700' AGL
Temperature
22°C / 72°F
Dewpoint
20°C / 68°F
Humidity
88%
Altimeter
29.91" Hg
Pressure
1012.92 hPa
Previous

28 mins ago

KEDN 171735Z AUTO 18006KT 10SM OVC010 21/20 A2991 RMK AO2 T02100196
Observed
Feb-17 @ 17:35 UTC
Wind
  • 180° at 6 KTS
Visibility
10 SM
Flight Rules
MVFR
Cloud Levels
  • Overcast at 1,000' AGL
Temperature
21°C / 70°F
Dewpoint
20°C / 68°F
Humidity
94%
Altimeter
29.91" Hg
Pressure
1012.92 hPa
Previous

48 mins ago

KEDN 171715Z AUTO 17008KT 10SM OVC008 21/20 A2991 RMK AO2 T02060196
Observed
Feb-17 @ 17:15 UTC
Wind
  • 170° at 8 KTS
Visibility
10 SM
Flight Rules
IFR
Cloud Levels
  • Overcast at 800' AGL
Temperature
21°C / 70°F
Dewpoint
20°C / 68°F
Humidity
94%
Altimeter
29.91" Hg
Pressure
1012.92 hPa